Time;durP1;ratioP1;P1;durP2;ratioP2;P2;SDS_P1;SDS_P2;PMS_P1;PMS_P2;Temp;Humidity;BMP_temperature;BMP_pressure;BME280_temperature;BME280_humidity;BME280_pressure;Samples;Min_cycle;Max_cycle;Signal;HPM_P1;HPM_P2
2021/09/01 01:50:44;;;;;;;;;;;12.70;93.20;;;;;;5107477;27;19927;-88
2021/09/01 17:01:29;;;;;;;;;;;16.70;93.60;;;;;;5147216;27;20381;-94
2021/09/01 17:04:02;;;;;;;;;;;16.40;95.40;;;;;;5122238;28;19918;-92
2021/09/01 17:06:30;;;;;;;;;;;16.40;96.60;;;;;;5129529;27;19911;-91
2021/09/01 17:08:58;;;;;;;;;;;16.50;97.30;;;;;;5131100;27;19942;-91
2021/09/01 17:11:24;;;;;;;;;;;16.60;97.90;;;;;;5125948;28;19911;-90
2021/09/01 17:13:49;;;;;;;;;;;16.70;98.10;;;;;;5127030;27;20260;-92
2021/09/01 17:16:15;;;;;;;;;;;16.80;98.20;;;;;;5136101;27;19936;-95
2021/09/01 17:18:41;;;;;;;;;;;16.80;98.30;;;;;;5145208;27;19919;-95
2021/09/01 17:21:13;;;;;;;;;;;16.90;98.30;;;;;;5144740;27;20058;-95
2021/09/01 17:23:57;;;;;;;;;;;16.90;98.30;;;;;;5140542;28;19908;-94
2021/09/01 17:26:25;;;;;;;;;;;17.00;98.40;;;;;;5126513;27;19943;-92
2021/09/01 17:28:57;;;;;;;;;;;17.00;98.40;;;;;;5151087;27;19957;-88
2021/09/01 17:31:26;;;;;;;;;;;17.00;98.30;;;;;;5131261;27;19922;-95
2021/09/01 17:33:52;;;;;;;;;;;17.10;98.30;;;;;;5205328;22;19896;-94
2021/09/01 17:36:18;;;;;;;;;;;17.10;98.10;;;;;;5083551;28;19916;-94
2021/09/01 17:38:47;;;;;;;;;;;17.10;98.00;;;;;;5088839;28;19919;-95
2021/09/01 17:41:20;;;;;;;;;;;17.20;98.00;;;;;;5098563;28;19940;-94
2021/09/01 17:43:46;;;;;;;;;;;17.20;97.80;;;;;;5100784;28;19923;-94
2021/09/01 17:46:13;;;;;;;;;;;17.30;97.70;;;;;;5096555;28;19913;-93
2021/09/01 17:49:03;;;;;;;;;;;17.30;97.70;;;;;;5282437;22;19952;-95
2021/09/01 17:51:29;;;;;;;;;;;17.40;97.70;;;;;;5089444;28;20104;-92
2021/09/01 17:53:55;;;;;;;;;;;17.30;97.60;;;;;;5090397;28;19912;-93
2021/09/01 17:56:21;;;;;;;;;;;17.40;97.50;;;;;;5090385;28;19936;-91
2021/09/01 17:58:47;;;;;;;;;;;17.40;97.60;;;;;;5089795;28;19994;-90
2021/09/01 18:01:14;;;;;;;;;;;17.50;97.70;;;;;;5090033;28;19912;-92
2021/09/01 18:03:39;;;;;;;;;;;17.50;97.70;;;;;;5088304;28;19926;-92
2021/09/01 18:06:05;;;;;;;;;;;17.50;97.70;;;;;;5090223;28;19912;-93
2021/09/01 18:08:31;;;;;;;;;;;17.60;97.70;;;;;;5090526;28;19954;-93
2021/09/01 18:10:56;;;;;;;;;;;17.60;97.80;;;;;;5086661;28;19917;-93
2021/09/01 18:13:25;;;;;;;;;;;17.60;97.90;;;;;;5058940;28;20250;-92
2021/09/01 18:15:51;;;;;;;;;;;17.60;97.70;;;;;;5076383;28;19913;-92
2021/09/01 18:18:17;;;;;;;;;;;17.60;97.80;;;;;;5076913;28;19936;-92
2021/09/01 18:20:42;;;;;;;;;;;17.60;97.70;;;;;;5075603;28;19969;-93
2021/09/01 18:23:12;;;;;;;;;;;17.60;97.70;;;;;;5077121;28;20352;-96
2021/09/01 18:25:50;;;;;;;;;;;17.60;97.70;;;;;;5096404;28;19915;-96
2021/09/01 18:28:20;;;;;;;;;;;17.70;97.50;;;;;;5079504;28;19892;-96
2021/09/01 18:30:48;;;;;;;;;;;17.70;97.30;;;;;;5076717;28;19912;-96
2021/09/01 18:33:14;;;;;;;;;;;17.60;97.30;;;;;;5076094;28;19908;-93
2021/09/01 18:35:40;;;;;;;;;;;17.60;97.50;;;;;;5075951;28;19919;-92
2021/09/01 18:38:05;;;;;;;;;;;17.50;97.60;;;;;;5075643;28;19919;-93
2021/09/01 18:40:31;;;;;;;;;;;17.50;97.60;;;;;;5076019;28;19912;-91
2021/09/01 18:42:58;;;;;;;;;;;17.50;97.70;;;;;;5065923;28;19955;-92
2021/09/01 18:45:24;;;;;;;;;;;17.50;97.60;;;;;;5042758;28;19924;-93
2021/09/01 18:47:50;;;;;;;;;;;17.50;97.70;;;;;;5067412;28;19946;-91
2021/09/01 18:50:16;;;;;;;;;;;17.50;97.70;;;;;;5067248;28;20426;-91
2021/09/01 18:52:43;;;;;;;;;;;17.40;97.70;;;;;;5075755;28;20339;-91
2021/09/01 18:55:09;;;;;;;;;;;17.40;97.70;;;;;;5060984;28;20006;-92
2021/09/01 18:57:35;;;;;;;;;;;17.40;97.70;;;;;;5068169;28;20003;-93
2021/09/01 19:00:03;;;;;;;;;;;17.40;97.80;;;;;;5075924;28;19908;-91
2021/09/01 19:02:31;;;;;;;;;;;17.30;97.70;;;;;;5075286;28;19926;-92
2021/09/01 19:04:57;;;;;;;;;;;17.30;97.70;;;;;;5075573;28;19965;-90
2021/09/01 19:07:27;;;;;;;;;;;17.30;97.70;;;;;;5075677;28;19982;-93
